sensor_id;sensor_type;location;lat;lon;timestamp;P1;durP1;ratioP1;P2;durP2;ratioP2
13441;SDS011;6793;55.662;13.114;2024-03-08T00:02:05;2.80;;;2.80;;
13441;SDS011;6793;55.662;13.114;2024-03-08T00:04:32;2.60;;;2.60;;
13441;SDS011;6793;55.662;13.114;2024-03-08T00:06:59;2.80;;;2.80;;
13441;SDS011;6793;55.662;13.114;2024-03-08T00:09:26;2.70;;;2.70;;
13441;SDS011;6793;55.662;13.114;2024-03-08T00:11:57;2.80;;;2.80;;
13441;SDS011;6793;55.662;13.114;2024-03-08T00:14:24;2.50;;;2.50;;
13441;SDS011;6793;55.662;13.114;2024-03-08T00:16:51;2.70;;;2.70;;
13441;SDS011;6793;55.662;13.114;2024-03-08T00:19:19;2.90;;;2.90;;
13441;SDS011;6793;55.662;13.114;2024-03-08T00:21:46;2.70;;;2.70;;
13441;SDS011;6793;55.662;13.114;2024-03-08T00:24:13;2.60;;;2.60;;
13441;SDS011;6793;55.662;13.114;2024-03-08T00:26:40;2.53;;;2.53;;
13441;SDS011;6793;55.662;13.114;2024-03-08T00:29:09;2.60;;;2.60;;
13441;SDS011;6793;55.662;13.114;2024-03-08T00:31:38;2.60;;;2.60;;
13441;SDS011;6793;55.662;13.114;2024-03-08T00:34:05;2.67;;;2.67;;
13441;SDS011;6793;55.662;13.114;2024-03-08T00:36:32;2.80;;;2.80;;
13441;SDS011;6793;55.662;13.114;2024-03-08T00:38:59;2.80;;;2.80;;
13441;SDS011;6793;55.662;13.114;2024-03-08T00:41:27;2.80;;;2.80;;
13441;SDS011;6793;55.662;13.114;2024-03-08T00:43:54;2.70;;;2.70;;
13441;SDS011;6793;55.662;13.114;2024-03-08T00:46:22;2.83;;;2.83;;
13441;SDS011;6793;55.662;13.114;2024-03-08T00:48:50;2.70;;;2.70;;
13441;SDS011;6793;55.662;13.114;2024-03-08T00:51:17;2.97;;;2.97;;
13441;SDS011;6793;55.662;13.114;2024-03-08T00:53:44;2.80;;;2.80;;
13441;SDS011;6793;55.662;13.114;2024-03-08T00:56:11;3.00;;;3.00;;
13441;SDS011;6793;55.662;13.114;2024-03-08T00:58:39;2.80;;;2.80;;
13441;SDS011;6793;55.662;13.114;2024-03-08T01:01:06;2.70;;;2.70;;
13441;SDS011;6793;55.662;13.114;2024-03-08T01:03:36;2.60;;;2.60;;
13441;SDS011;6793;55.662;13.114;2024-03-08T01:06:03;2.80;;;2.80;;
13441;SDS011;6793;55.662;13.114;2024-03-08T01:08:30;3.20;;;3.10;;
13441;SDS011;6793;55.662;13.114;2024-03-08T01:10:58;2.83;;;2.83;;
13441;SDS011;6793;55.662;13.114;2024-03-08T01:13:25;2.90;;;2.90;;
13441;SDS011;6793;55.662;13.114;2024-03-08T01:15:52;2.90;;;2.90;;
13441;SDS011;6793;55.662;13.114;2024-03-08T01:18:19;2.90;;;2.90;;
13441;SDS011;6793;55.662;13.114;2024-03-08T01:20:48;2.90;;;2.90;;
13441;SDS011;6793;55.662;13.114;2024-03-08T01:23:15;2.60;;;2.60;;
13441;SDS011;6793;55.662;13.114;2024-03-08T01:25:43;2.63;;;2.63;;
13441;SDS011;6793;55.662;13.114;2024-03-08T01:28:10;3.00;;;3.00;;
13441;SDS011;6793;55.662;13.114;2024-03-08T01:30:38;2.80;;;2.80;;
13441;SDS011;6793;55.662;13.114;2024-03-08T01:33:05;2.90;;;2.90;;
13441;SDS011;6793;55.662;13.114;2024-03-08T01:35:32;2.67;;;2.67;;
13441;SDS011;6793;55.662;13.114;2024-03-08T01:38:01;2.67;;;2.67;;
13441;SDS011;6793;55.662;13.114;2024-03-08T01:40:30;2.70;;;2.70;;
13441;SDS011;6793;55.662;13.114;2024-03-08T01:43:16;2.73;;;2.73;;
13441;SDS011;6793;55.662;13.114;2024-03-08T01:45:43;2.90;;;2.90;;
13441;SDS011;6793;55.662;13.114;2024-03-08T01:48:10;2.67;;;2.67;;
13441;SDS011;6793;55.662;13.114;2024-03-08T01:50:39;2.70;;;2.70;;
13441;SDS011;6793;55.662;13.114;2024-03-08T01:53:08;2.70;;;2.70;;
13441;SDS011;6793;55.662;13.114;2024-03-08T01:55:38;2.70;;;2.70;;
13441;SDS011;6793;55.662;13.114;2024-03-08T01:58:05;2.60;;;2.60;;
13441;SDS011;6793;55.662;13.114;2024-03-08T02:00:33;2.60;;;2.60;;
13441;SDS011;6793;55.662;13.114;2024-03-08T02:03:01;2.70;;;2.70;;
13441;SDS011;6793;55.662;13.114;2024-03-08T02:05:29;2.90;;;2.90;;
13441;SDS011;6793;55.662;13.114;2024-03-08T02:07:56;2.70;;;2.70;;
13441;SDS011;6793;55.662;13.114;2024-03-08T02:10:25;2.70;;;2.70;;
13441;SDS011;6793;55.662;13.114;2024-03-08T02:12:52;2.70;;;2.70;;
13441;SDS011;6793;55.662;13.114;2024-03-08T02:15:19;2.63;;;2.63;;
13441;SDS011;6793;55.662;13.114;2024-03-08T02:17:46;2.50;;;2.50;;
13441;SDS011;6793;55.662;13.114;2024-03-08T02:20:14;2.70;;;2.70;;
13441;SDS011;6793;55.662;13.114;2024-03-08T02:22:42;2.60;;;2.60;;
13441;SDS011;6793;55.662;13.114;2024-03-08T02:25:09;2.90;;;2.90;;
13441;SDS011;6793;55.662;13.114;2024-03-08T02:27:37;2.93;;;2.93;;
13441;SDS011;6793;55.662;13.114;2024-03-08T02:30:04;2.60;;;2.60;;
13441;SDS011;6793;55.662;13.114;2024-03-08T02:32:32;2.73;;;2.73;;
13441;SDS011;6793;55.662;13.114;2024-03-08T02:34:59;2.97;;;2.97;;
13441;SDS011;6793;55.662;13.114;2024-03-08T02:37:26;3.30;;;3.20;;
13441;SDS011;6793;55.662;13.114;2024-03-08T02:39:54;2.90;;;2.90;;
13441;SDS011;6793;55.662;13.114;2024-03-08T02:42:21;3.00;;;3.00;;
13441;SDS011;6793;55.662;13.114;2024-03-08T02:44:49;2.90;;;2.90;;
13441;SDS011;6793;55.662;13.114;2024-03-08T02:47:16;2.90;;;2.90;;
13441;SDS011;6793;55.662;13.114;2024-03-08T02:49:43;2.80;;;2.80;;
13441;SDS011;6793;55.662;13.114;2024-03-08T02:52:10;2.87;;;2.87;;
13441;SDS011;6793;55.662;13.114;2024-03-08T02:54:37;2.90;;;2.90;;
13441;SDS011;6793;55.662;13.114;2024-03-08T02:57:05;2.90;;;2.90;;
13441;SDS011;6793;55.662;13.114;2024-03-08T02:59:33;2.90;;;2.90;;
13441;SDS011;6793;55.662;13.114;2024-03-08T03:02:00;3.00;;;3.00;;
13441;SDS011;6793;55.662;13.114;2024-03-08T03:04:27;2.90;;;2.90;;
13441;SDS011;6793;55.662;13.114;2024-03-08T03:06:57;3.00;;;3.00;;
13441;SDS011;6793;55.662;13.114;2024-03-08T03:09:24;2.80;;;2.80;;
13441;SDS011;6793;55.662;13.114;2024-03-08T03:11:52;2.90;;;2.90;;
13441;SDS011;6793;55.662;13.114;2024-03-08T03:14:22;2.80;;;2.80;;
13441;SDS011;6793;55.662;13.114;2024-03-08T03:16:49;3.20;;;3.10;;
13441;SDS011;6793;55.662;13.114;2024-03-08T03:19:16;2.87;;;2.87;;
13441;SDS011;6793;55.662;13.114;2024-03-08T03:21:43;3.00;;;3.00;;
13441;SDS011;6793;55.662;13.114;2024-03-08T03:24:10;3.10;;;3.10;;
13441;SDS011;6793;55.662;13.114;2024-03-08T03:26:37;2.90;;;2.90;;
13441;SDS011;6793;55.662;13.114;2024-03-08T03:29:05;2.97;;;2.97;;
13441;SDS011;6793;55.662;13.114;2024-03-08T03:31:35;3.00;;;3.00;;
13441;SDS011;6793;55.662;13.114;2024-03-08T03:34:02;3.00;;;3.00;;
13441;SDS011;6793;55.662;13.114;2024-03-08T03:36:29;3.00;;;3.00;;
13441;SDS011;6793;55.662;13.114;2024-03-08T03:38:57;2.90;;;2.90;;
13441;SDS011;6793;55.662;13.114;2024-03-08T03:41:35;3.13;;;3.10;;
13441;SDS011;6793;55.662;13.114;2024-03-08T03:44:03;3.00;;;3.00;;
13441;SDS011;6793;55.662;13.114;2024-03-08T03:46:31;3.10;;;3.10;;
13441;SDS011;6793;55.662;13.114;2024-03-08T03:48:59;3.00;;;3.00;;
13441;SDS011;6793;55.662;13.114;2024-03-08T03:51:28;3.23;;;3.13;;
13441;SDS011;6793;55.662;13.114;2024-03-08T03:53:55;3.47;;;3.37;;
13441;SDS011;6793;55.662;13.114;2024-03-08T03:56:24;3.40;;;3.30;;
13441;SDS011;6793;55.662;13.114;2024-03-08T03:58:52;3.07;;;3.07;;
13441;SDS011;6793;55.662;13.114;2024-03-08T04:01:19;3.20;;;3.10;;
13441;SDS011;6793;55.662;13.114;2024-03-08T04:03:46;3.20;;;3.10;;
13441;SDS011;6793;55.662;13.114;2024-03-08T04:06:14;3.40;;;3.30;;
13441;SDS011;6793;55.662;13.114;2024-03-08T04:08:41;3.57;;;3.47;;
13441;SDS011;6793;55.662;13.114;2024-03-08T04:11:08;3.50;;;3.40;;
13441;SDS011;6793;55.662;13.114;2024-03-08T04:13:36;3.37;;;3.27;;
13441;SDS011;6793;55.662;13.114;2024-03-08T04:16:03;3.37;;;3.27;;
13441;SDS011;6793;55.662;13.114;2024-03-08T04:18:33;3.50;;;3.40;;
13441;SDS011;6793;55.662;13.114;2024-03-08T04:21:00;3.50;;;3.40;;
13441;SDS011;6793;55.662;13.114;2024-03-08T04:23:29;3.50;;;3.40;;
13441;SDS011;6793;55.662;13.114;2024-03-08T04:25:56;3.63;;;3.53;;
13441;SDS011;6793;55.662;13.114;2024-03-08T04:28:23;3.30;;;3.20;;
13441;SDS011;6793;55.662;13.114;2024-03-08T04:30:51;3.10;;;3.10;;
13441;SDS011;6793;55.662;13.114;2024-03-08T04:33:18;3.43;;;3.33;;
13441;SDS011;6793;55.662;13.114;2024-03-08T04:35:46;3.50;;;3.40;;
13441;SDS011;6793;55.662;13.114;2024-03-08T04:38:13;3.47;;;3.37;;
13441;SDS011;6793;55.662;13.114;2024-03-08T04:40:42;3.50;;;3.40;;
13441;SDS011;6793;55.662;13.114;2024-03-08T04:43:09;3.60;;;3.50;;
13441;SDS011;6793;55.662;13.114;2024-03-08T04:45:36;3.60;;;3.50;;
13441;SDS011;6793;55.662;13.114;2024-03-08T04:48:04;3.63;;;3.53;;
13441;SDS011;6793;55.662;13.114;2024-03-08T04:50:33;3.90;;;3.80;;
13441;SDS011;6793;55.662;13.114;2024-03-08T04:53:00;3.53;;;3.43;;
13441;SDS011;6793;55.662;13.114;2024-03-08T04:55:28;3.70;;;3.60;;
13441;SDS011;6793;55.662;13.114;2024-03-08T04:57:56;3.70;;;3.60;;
13441;SDS011;6793;55.662;13.114;2024-03-08T05:00:23;3.70;;;3.60;;
13441;SDS011;6793;55.662;13.114;2024-03-08T05:02:50;3.70;;;3.60;;
13441;SDS011;6793;55.662;13.114;2024-03-08T05:05:18;3.70;;;3.60;;
13441;SDS011;6793;55.662;13.114;2024-03-08T05:07:45;3.70;;;3.60;;
13441;SDS011;6793;55.662;13.114;2024-03-08T05:10:13;3.70;;;3.60;;
13441;SDS011;6793;55.662;13.114;2024-03-08T05:12:42;3.70;;;3.60;;
13441;SDS011;6793;55.662;13.114;2024-03-08T05:15:10;3.70;;;3.60;;
13441;SDS011;6793;55.662;13.114;2024-03-08T05:17:37;3.70;;;3.60;;
13441;SDS011;6793;55.662;13.114;2024-03-08T05:20:05;3.60;;;3.50;;
13441;SDS011;6793;55.662;13.114;2024-03-08T05:22:37;3.70;;;3.60;;
13441;SDS011;6793;55.662;13.114;2024-03-08T05:25:05;3.80;;;3.70;;
13441;SDS011;6793;55.662;13.114;2024-03-08T05:27:33;3.77;;;3.67;;
13441;SDS011;6793;55.662;13.114;2024-03-08T05:30:01;3.80;;;3.70;;
13441;SDS011;6793;55.662;13.114;2024-03-08T05:32:30;3.70;;;3.60;;
13441;SDS011;6793;55.662;13.114;2024-03-08T05:34:57;3.50;;;3.40;;
13441;SDS011;6793;55.662;13.114;2024-03-08T05:37:24;3.50;;;3.40;;
13441;SDS011;6793;55.662;13.114;2024-03-08T05:39:51;3.30;;;3.20;;
13441;SDS011;6793;55.662;13.114;2024-03-08T05:42:19;3.17;;;3.10;;
13441;SDS011;6793;55.662;13.114;2024-03-08T05:44:46;3.40;;;3.30;;
13441;SDS011;6793;55.662;13.114;2024-03-08T05:47:14;3.40;;;3.30;;
13441;SDS011;6793;55.662;13.114;2024-03-08T05:49:44;3.40;;;3.30;;
13441;SDS011;6793;55.662;13.114;2024-03-08T05:52:11;3.50;;;3.40;;
13441;SDS011;6793;55.662;13.114;2024-03-08T05:54:39;3.40;;;3.30;;
13441;SDS011;6793;55.662;13.114;2024-03-08T05:57:07;3.57;;;3.47;;
13441;SDS011;6793;55.662;13.114;2024-03-08T05:59:34;3.60;;;3.50;;
13441;SDS011;6793;55.662;13.114;2024-03-08T06:02:01;3.80;;;3.70;;
13441;SDS011;6793;55.662;13.114;2024-03-08T06:04:28;3.70;;;3.60;;
13441;SDS011;6793;55.662;13.114;2024-03-08T06:06:57;3.47;;;3.37;;
13441;SDS011;6793;55.662;13.114;2024-03-08T06:09:24;3.50;;;3.40;;
13441;SDS011;6793;55.662;13.114;2024-03-08T06:11:51;3.40;;;3.30;;
13441;SDS011;6793;55.662;13.114;2024-03-08T06:14:18;2.90;;;2.90;;
13441;SDS011;6793;55.662;13.114;2024-03-08T06:16:45;3.00;;;3.00;;
13441;SDS011;6793;55.662;13.114;2024-03-08T06:19:15;2.90;;;2.90;;
13441;SDS011;6793;55.662;13.114;2024-03-08T06:21:42;2.70;;;2.70;;
13441;SDS011;6793;55.662;13.114;2024-03-08T06:24:10;2.30;;;2.30;;
13441;SDS011;6793;55.662;13.114;2024-03-08T06:26:37;2.50;;;2.50;;
13441;SDS011;6793;55.662;13.114;2024-03-08T06:29:04;2.10;;;2.10;;
13441;SDS011;6793;55.662;13.114;2024-03-08T06:31:32;1.80;;;1.80;;
13441;SDS011;6793;55.662;13.114;2024-03-08T06:33:59;1.90;;;1.90;;
13441;SDS011;6793;55.662;13.114;2024-03-08T06:36:26;1.90;;;1.90;;
13441;SDS011;6793;55.662;13.114;2024-03-08T06:38:53;1.80;;;1.80;;
13441;SDS011;6793;55.662;13.114;2024-03-08T06:41:23;1.70;;;1.70;;
13441;SDS011;6793;55.662;13.114;2024-03-08T06:43:50;1.60;;;1.60;;
13441;SDS011;6793;55.662;13.114;2024-03-08T06:46:22;1.40;;;1.40;;
13441;SDS011;6793;55.662;13.114;2024-03-08T06:48:52;1.40;;;1.40;;
13441;SDS011;6793;55.662;13.114;2024-03-08T06:51:19;1.53;;;1.53;;
13441;SDS011;6793;55.662;13.114;2024-03-08T06:53:46;1.60;;;1.60;;
13441;SDS011;6793;55.662;13.114;2024-03-08T06:56:14;1.60;;;1.60;;
13441;SDS011;6793;55.662;13.114;2024-03-08T06:58:42;1.80;;;1.80;;
13441;SDS011;6793;55.662;13.114;2024-03-08T07:01:10;1.60;;;1.60;;
13441;SDS011;6793;55.662;13.114;2024-03-08T07:03:39;1.52;;;1.52;;
13441;SDS011;6793;55.662;13.114;2024-03-08T07:06:09;1.33;;;1.33;;
13441;SDS011;6793;55.662;13.114;2024-03-08T07:08:36;1.30;;;1.30;;
13441;SDS011;6793;55.662;13.114;2024-03-08T07:11:03;1.30;;;1.30;;
13441;SDS011;6793;55.662;13.114;2024-03-08T07:13:30;1.35;;;1.35;;
13441;SDS011;6793;55.662;13.114;2024-03-08T07:15:58;1.52;;;1.52;;
13441;SDS011;6793;55.662;13.114;2024-03-08T07:18:25;1.20;;;1.20;;
13441;SDS011;6793;55.662;13.114;2024-03-08T07:20:54;1.00;;;1.00;;
13441;SDS011;6793;55.662;13.114;2024-03-08T07:23:21;1.10;;;1.10;;
13441;SDS011;6793;55.662;13.114;2024-03-08T07:26:02;0.90;;;0.90;;
13441;SDS011;6793;55.662;13.114;2024-03-08T07:28:29;0.80;;;0.80;;
13441;SDS011;6793;55.662;13.114;2024-03-08T07:30:58;0.80;;;0.80;;
13441;SDS011;6793;55.662;13.114;2024-03-08T07:33:42;0.70;;;0.70;;
13441;SDS011;6793;55.662;13.114;2024-03-08T07:36:09;0.70;;;0.70;;
13441;SDS011;6793;55.662;13.114;2024-03-08T07:38:36;0.70;;;0.70;;
13441;SDS011;6793;55.662;13.114;2024-03-08T07:41:03;0.70;;;0.70;;
13441;SDS011;6793;55.662;13.114;2024-03-08T07:43:30;0.60;;;0.60;;
13441;SDS011;6793;55.662;13.114;2024-03-08T07:45:59;0.70;;;0.70;;
13441;SDS011;6793;55.662;13.114;2024-03-08T07:48:26;0.60;;;0.60;;
13441;SDS011;6793;55.662;13.114;2024-03-08T07:50:53;0.60;;;0.60;;
13441;SDS011;6793;55.662;13.114;2024-03-08T07:53:20;0.50;;;0.50;;
13441;SDS011;6793;55.662;13.114;2024-03-08T07:55:49;0.63;;;0.63;;
13441;SDS011;6793;55.662;13.114;2024-03-08T07:58:16;0.50;;;0.50;;
13441;SDS011;6793;55.662;13.114;2024-03-08T08:00:43;0.70;;;0.70;;
13441;SDS011;6793;55.662;13.114;2024-03-08T08:03:12;0.70;;;0.70;;
13441;SDS011;6793;55.662;13.114;2024-03-08T08:05:39;0.80;;;0.80;;
13441;SDS011;6793;55.662;13.114;2024-03-08T08:08:07;0.68;;;0.68;;
13441;SDS011;6793;55.662;13.114;2024-03-08T08:10:35;0.90;;;0.90;;
13441;SDS011;6793;55.662;13.114;2024-03-08T08:13:02;0.90;;;0.90;;
13441;SDS011;6793;55.662;13.114;2024-03-08T08:15:30;0.80;;;0.80;;
13441;SDS011;6793;55.662;13.114;2024-03-08T08:17:59;1.10;;;1.10;;
13441;SDS011;6793;55.662;13.114;2024-03-08T08:20:29;1.00;;;1.00;;
13441;SDS011;6793;55.662;13.114;2024-03-08T08:22:56;1.00;;;1.00;;
13441;SDS011;6793;55.662;13.114;2024-03-08T08:25:24;1.00;;;1.00;;
13441;SDS011;6793;55.662;13.114;2024-03-08T08:27:51;1.10;;;1.10;;
13441;SDS011;6793;55.662;13.114;2024-03-08T08:30:19;1.10;;;1.10;;
13441;SDS011;6793;55.662;13.114;2024-03-08T08:32:46;1.00;;;1.00;;
13441;SDS011;6793;55.662;13.114;2024-03-08T08:35:13;1.20;;;1.20;;
13441;SDS011;6793;55.662;13.114;2024-03-08T08:37:41;1.10;;;1.10;;
13441;SDS011;6793;55.662;13.114;2024-03-08T08:40:09;1.10;;;1.10;;
13441;SDS011;6793;55.662;13.114;2024-03-08T08:42:39;1.20;;;1.20;;
13441;SDS011;6793;55.662;13.114;2024-03-08T08:45:07;1.10;;;1.10;;
13441;SDS011;6793;55.662;13.114;2024-03-08T08:47:34;1.13;;;1.13;;
13441;SDS011;6793;55.662;13.114;2024-03-08T08:50:01;1.27;;;1.27;;
13441;SDS011;6793;55.662;13.114;2024-03-08T08:52:29;1.30;;;1.30;;
13441;SDS011;6793;55.662;13.114;2024-03-08T08:54:58;1.20;;;1.20;;
13441;SDS011;6793;55.662;13.114;2024-03-08T08:57:25;1.20;;;1.20;;
13441;SDS011;6793;55.662;13.114;2024-03-08T08:59:53;1.40;;;1.40;;
13441;SDS011;6793;55.662;13.114;2024-03-08T09:02:20;1.30;;;1.30;;
13441;SDS011;6793;55.662;13.114;2024-03-08T09:04:47;1.40;;;1.40;;
13441;SDS011;6793;55.662;13.114;2024-03-08T09:07:15;1.30;;;1.30;;
13441;SDS011;6793;55.662;13.114;2024-03-08T09:09:44;1.30;;;1.30;;
13441;SDS011;6793;55.662;13.114;2024-03-08T09:12:12;1.10;;;1.10;;
13441;SDS011;6793;55.662;13.114;2024-03-08T09:14:39;1.30;;;1.30;;
13441;SDS011;6793;55.662;13.114;2024-03-08T09:17:06;1.20;;;1.20;;
13441;SDS011;6793;55.662;13.114;2024-03-08T09:19:34;1.20;;;1.20;;
13441;SDS011;6793;55.662;13.114;2024-03-08T09:22:01;1.30;;;1.30;;
13441;SDS011;6793;55.662;13.114;2024-03-08T09:24:29;1.20;;;1.20;;
13441;SDS011;6793;55.662;13.114;2024-03-08T09:26:56;1.30;;;1.30;;
13441;SDS011;6793;55.662;13.114;2024-03-08T09:29:25;1.20;;;1.20;;
13441;SDS011;6793;55.662;13.114;2024-03-08T09:31:53;1.10;;;1.10;;
13441;SDS011;6793;55.662;13.114;2024-03-08T09:34:20;1.30;;;1.30;;
13441;SDS011;6793;55.662;13.114;2024-03-08T09:36:48;1.48;;;1.48;;
13441;SDS011;6793;55.662;13.114;2024-03-08T09:39:17;1.40;;;1.40;;
13441;SDS011;6793;55.662;13.114;2024-03-08T09:41:45;1.40;;;1.40;;
13441;SDS011;6793;55.662;13.114;2024-03-08T09:44:13;1.60;;;1.60;;
13441;SDS011;6793;55.662;13.114;2024-03-08T09:46:42;1.70;;;1.70;;
13441;SDS011;6793;55.662;13.114;2024-03-08T09:49:09;1.80;;;1.80;;
13441;SDS011;6793;55.662;13.114;2024-03-08T09:51:37;1.80;;;1.80;;
13441;SDS011;6793;55.662;13.114;2024-03-08T09:54:06;1.80;;;1.80;;
13441;SDS011;6793;55.662;13.114;2024-03-08T09:56:33;1.80;;;1.80;;
13441;SDS011;6793;55.662;13.114;2024-03-08T09:59:01;1.70;;;1.70;;
13441;SDS011;6793;55.662;13.114;2024-03-08T10:02:07;1.90;;;1.90;;
13441;SDS011;6793;55.662;13.114;2024-03-08T10:04:39;1.90;;;1.90;;
13441;SDS011;6793;55.662;13.114;2024-03-08T10:07:07;2.00;;;2.00;;
13441;SDS011;6793;55.662;13.114;2024-03-08T10:09:34;2.00;;;2.00;;
13441;SDS011;6793;55.662;13.114;2024-03-08T10:12:01;1.85;;;1.85;;
13441;SDS011;6793;55.662;13.114;2024-03-08T10:14:28;1.80;;;1.80;;
13441;SDS011;6793;55.662;13.114;2024-03-08T10:16:56;1.92;;;1.92;;
13441;SDS011;6793;55.662;13.114;2024-03-08T10:19:26;1.80;;;1.80;;
13441;SDS011;6793;55.662;13.114;2024-03-08T10:21:55;1.80;;;1.80;;
13441;SDS011;6793;55.662;13.114;2024-03-08T10:24:23;1.90;;;1.90;;
13441;SDS011;6793;55.662;13.114;2024-03-08T10:26:51;1.83;;;1.83;;
13441;SDS011;6793;55.662;13.114;2024-03-08T10:29:19;1.80;;;1.80;;
13441;SDS011;6793;55.662;13.114;2024-03-08T10:31:46;2.00;;;2.00;;
13441;SDS011;6793;55.662;13.114;2024-03-08T10:34:15;1.80;;;1.80;;
13441;SDS011;6793;55.662;13.114;2024-03-08T10:36:43;1.73;;;1.73;;
13441;SDS011;6793;55.662;13.114;2024-03-08T10:39:12;1.90;;;1.90;;
13441;SDS011;6793;55.662;13.114;2024-03-08T10:41:41;1.80;;;1.80;;
13441;SDS011;6793;55.662;13.114;2024-03-08T10:44:12;1.80;;;1.80;;
13441;SDS011;6793;55.662;13.114;2024-03-08T10:46:47;1.70;;;1.70;;
13441;SDS011;6793;55.662;13.114;2024-03-08T10:49:19;1.80;;;1.80;;
13441;SDS011;6793;55.662;13.114;2024-03-08T10:51:52;1.70;;;1.70;;
13441;SDS011;6793;55.662;13.114;2024-03-08T10:54:19;1.80;;;1.80;;
13441;SDS011;6793;55.662;13.114;2024-03-08T10:56:47;1.90;;;1.90;;
13441;SDS011;6793;55.662;13.114;2024-03-08T10:59:15;1.70;;;1.70;;
13441;SDS011;6793;55.662;13.114;2024-03-08T11:01:43;1.60;;;1.60;;
13441;SDS011;6793;55.662;13.114;2024-03-08T11:04:11;1.70;;;1.70;;
13441;SDS011;6793;55.662;13.114;2024-03-08T11:06:42;1.88;;;1.88;;
13441;SDS011;6793;55.662;13.114;2024-03-08T11:09:12;1.70;;;1.70;;
13441;SDS011;6793;55.662;13.114;2024-03-08T11:14:42;1.70;;;1.70;;
13441;SDS011;6793;55.662;13.114;2024-03-08T11:17:10;1.60;;;1.60;;
13441;SDS011;6793;55.662;13.114;2024-03-08T11:19:37;1.50;;;1.50;;
13441;SDS011;6793;55.662;13.114;2024-03-08T11:22:05;1.70;;;1.70;;
13441;SDS011;6793;55.662;13.114;2024-03-08T11:24:39;1.60;;;1.60;;
13441;SDS011;6793;55.662;13.114;2024-03-08T11:27:06;1.70;;;1.70;;
13441;SDS011;6793;55.662;13.114;2024-03-08T11:29:37;1.60;;;1.60;;
13441;SDS011;6793;55.662;13.114;2024-03-08T11:32:07;1.60;;;1.60;;
13441;SDS011;6793;55.662;13.114;2024-03-08T11:34:34;1.70;;;1.70;;
13441;SDS011;6793;55.662;13.114;2024-03-08T11:37:03;1.70;;;1.70;;
13441;SDS011;6793;55.662;13.114;2024-03-08T11:39:30;1.60;;;1.60;;
13441;SDS011;6793;55.662;13.114;2024-03-08T11:41:58;1.77;;;1.77;;
13441;SDS011;6793;55.662;13.114;2024-03-08T11:44:29;1.70;;;1.70;;
13441;SDS011;6793;55.662;13.114;2024-03-08T11:46:56;1.50;;;1.50;;
13441;SDS011;6793;55.662;13.114;2024-03-08T11:49:23;1.50;;;1.50;;
13441;SDS011;6793;55.662;13.114;2024-03-08T11:51:51;1.50;;;1.50;;
13441;SDS011;6793;55.662;13.114;2024-03-08T11:54:18;1.40;;;1.40;;
13441;SDS011;6793;55.662;13.114;2024-03-08T11:56:46;1.40;;;1.40;;
13441;SDS011;6793;55.662;13.114;2024-03-08T11:59:14;1.40;;;1.40;;
13441;SDS011;6793;55.662;13.114;2024-03-08T12:01:42;1.30;;;1.30;;
13441;SDS011;6793;55.662;13.114;2024-03-08T12:04:11;1.40;;;1.40;;
13441;SDS011;6793;55.662;13.114;2024-03-08T12:06:39;1.40;;;1.40;;
13441;SDS011;6793;55.662;13.114;2024-03-08T12:09:09;1.40;;;1.40;;
13441;SDS011;6793;55.662;13.114;2024-03-08T12:11:38;1.50;;;1.50;;
13441;SDS011;6793;55.662;13.114;2024-03-08T12:14:06;1.30;;;1.30;;
13441;SDS011;6793;55.662;13.114;2024-03-08T12:16:34;1.45;;;1.45;;
13441;SDS011;6793;55.662;13.114;2024-03-08T12:19:03;1.50;;;1.50;;
13441;SDS011;6793;55.662;13.114;2024-03-08T12:21:31;1.38;;;1.38;;
13441;SDS011;6793;55.662;13.114;2024-03-08T12:24:03;1.33;;;1.33;;
13441;SDS011;6793;55.662;13.114;2024-03-08T12:26:33;1.50;;;1.50;;
13441;SDS011;6793;55.662;13.114;2024-03-08T12:29:17;1.50;;;1.50;;
13441;SDS011;6793;55.662;13.114;2024-03-08T12:31:46;1.50;;;1.50;;
13441;SDS011;6793;55.662;13.114;2024-03-08T12:34:14;1.40;;;1.40;;
13441;SDS011;6793;55.662;13.114;2024-03-08T12:36:45;1.50;;;1.50;;
13441;SDS011;6793;55.662;13.114;2024-03-08T12:39:14;1.50;;;1.50;;
13441;SDS011;6793;55.662;13.114;2024-03-08T12:41:42;1.30;;;1.30;;
13441;SDS011;6793;55.662;13.114;2024-03-08T12:44:09;1.50;;;1.50;;
13441;SDS011;6793;55.662;13.114;2024-03-08T12:46:37;1.45;;;1.45;;
13441;SDS011;6793;55.662;13.114;2024-03-08T12:49:09;1.50;;;1.50;;
13441;SDS011;6793;55.662;13.114;2024-03-08T12:51:37;1.65;;;1.65;;
13441;SDS011;6793;55.662;13.114;2024-03-08T12:54:04;1.52;;;1.52;;
13441;SDS011;6793;55.662;13.114;2024-03-08T12:56:33;1.60;;;1.60;;
13441;SDS011;6793;55.662;13.114;2024-03-08T12:59:02;1.60;;;1.60;;
13441;SDS011;6793;55.662;13.114;2024-03-08T13:01:30;1.60;;;1.60;;
13441;SDS011;6793;55.662;13.114;2024-03-08T13:03:58;1.58;;;1.58;;
13441;SDS011;6793;55.662;13.114;2024-03-08T13:06:26;1.60;;;1.60;;
13441;SDS011;6793;55.662;13.114;2024-03-08T13:08:53;1.50;;;1.50;;
13441;SDS011;6793;55.662;13.114;2024-03-08T13:11:21;1.45;;;1.45;;
13441;SDS011;6793;55.662;13.114;2024-03-08T13:13:48;1.60;;;1.60;;
13441;SDS011;6793;55.662;13.114;2024-03-08T13:16:15;1.50;;;1.50;;
13441;SDS011;6793;55.662;13.114;2024-03-08T13:18:44;1.50;;;1.50;;
13441;SDS011;6793;55.662;13.114;2024-03-08T13:21:13;1.40;;;1.40;;
13441;SDS011;6793;55.662;13.114;2024-03-08T13:23:44;1.60;;;1.60;;
13441;SDS011;6793;55.662;13.114;2024-03-08T13:26:14;1.50;;;1.50;;
13441;SDS011;6793;55.662;13.114;2024-03-08T13:28:41;1.30;;;1.30;;
13441;SDS011;6793;55.662;13.114;2024-03-08T13:31:08;1.40;;;1.40;;
13441;SDS011;6793;55.662;13.114;2024-03-08T13:33:36;1.50;;;1.50;;
13441;SDS011;6793;55.662;13.114;2024-03-08T13:36:04;1.40;;;1.40;;
13441;SDS011;6793;55.662;13.114;2024-03-08T13:38:39;1.58;;;1.58;;
13441;SDS011;6793;55.662;13.114;2024-03-08T13:41:09;1.50;;;1.50;;
13441;SDS011;6793;55.662;13.114;2024-03-08T13:43:36;1.50;;;1.50;;
13441;SDS011;6793;55.662;13.114;2024-03-08T13:46:04;1.40;;;1.40;;
13441;SDS011;6793;55.662;13.114;2024-03-08T13:48:32;1.50;;;1.50;;
13441;SDS011;6793;55.662;13.114;2024-03-08T13:50:59;1.50;;;1.50;;
13441;SDS011;6793;55.662;13.114;2024-03-08T13:53:26;1.40;;;1.40;;
13441;SDS011;6793;55.662;13.114;2024-03-08T13:55:53;1.40;;;1.40;;
13441;SDS011;6793;55.662;13.114;2024-03-08T13:58:23;1.40;;;1.40;;
13441;SDS011;6793;55.662;13.114;2024-03-08T14:00:50;1.48;;;1.48;;
13441;SDS011;6793;55.662;13.114;2024-03-08T14:03:17;1.20;;;1.20;;
13441;SDS011;6793;55.662;13.114;2024-03-08T14:05:44;1.40;;;1.40;;
13441;SDS011;6793;55.662;13.114;2024-03-08T14:08:11;1.40;;;1.40;;
13441;SDS011;6793;55.662;13.114;2024-03-08T14:10:39;1.50;;;1.50;;
13441;SDS011;6793;55.662;13.114;2024-03-08T14:13:07;1.40;;;1.40;;
13441;SDS011;6793;55.662;13.114;2024-03-08T14:15:38;1.50;;;1.50;;
13441;SDS011;6793;55.662;13.114;2024-03-08T14:18:07;1.40;;;1.40;;
13441;SDS011;6793;55.662;13.114;2024-03-08T14:20:34;1.45;;;1.45;;
13441;SDS011;6793;55.662;13.114;2024-03-08T14:23:01;1.40;;;1.40;;
13441;SDS011;6793;55.662;13.114;2024-03-08T14:25:31;1.40;;;1.40;;
13441;SDS011;6793;55.662;13.114;2024-03-08T14:27:58;1.50;;;1.50;;
13441;SDS011;6793;55.662;13.114;2024-03-08T14:30:28;1.50;;;1.50;;
13441;SDS011;6793;55.662;13.114;2024-03-08T14:33:01;1.42;;;1.42;;
13441;SDS011;6793;55.662;13.114;2024-03-08T14:35:28;1.40;;;1.40;;
13441;SDS011;6793;55.662;13.114;2024-03-08T14:37:55;1.50;;;1.50;;
13441;SDS011;6793;55.662;13.114;2024-03-08T14:40:23;1.42;;;1.42;;
13441;SDS011;6793;55.662;13.114;2024-03-08T14:42:51;1.50;;;1.50;;
13441;SDS011;6793;55.662;13.114;2024-03-08T14:45:18;1.40;;;1.40;;
13441;SDS011;6793;55.662;13.114;2024-03-08T14:47:45;1.50;;;1.50;;
13441;SDS011;6793;55.662;13.114;2024-03-08T14:50:17;1.50;;;1.50;;
13441;SDS011;6793;55.662;13.114;2024-03-08T14:52:44;1.50;;;1.50;;
13441;SDS011;6793;55.662;13.114;2024-03-08T14:55:13;1.60;;;1.60;;
13441;SDS011;6793;55.662;13.114;2024-03-08T14:57:40;1.33;;;1.33;;